Time;durP1;ratioP1;P1;durP2;ratioP2;P2;SDS_P1;SDS_P2;PMS_P1;PMS_P2;Temp;Humidity;BMP_temperature;BMP_pressure;BME280_temperature;BME280_humidity;BME280_pressure;Samples;Min_cycle;Max_cycle;Signal;HPM_P1;HPM_P2
2023/04/11 00:01:48;;;;;;;;;;;;;;;21.91;28.60;97288.22;5054704;28;1200;-74
2023/04/11 00:04:15;;;;;;;;;;;;;;;21.65;29.08;97274.22;5087374;28;924;-74
2023/04/11 00:06:41;;;;;;;;;;;;;;;21.76;29.17;97280.28;5088295;28;954;-74
2023/04/11 00:09:07;;;;;;;;;;;;;;;22.11;28.40;97266.00;5071923;28;1037;-74
2023/04/11 00:11:32;;;;;;;;;;;;;;;22.26;28.59;97272.66;5088407;28;1265;-74
2023/04/11 00:13:58;;;;;;;;;;;;;;;22.22;28.41;97266.34;5054985;28;941;-74
2023/04/11 00:16:24;;;;;;;;;;;;;;;21.97;28.75;97261.66;5056019;28;1914;-73
2023/04/11 00:18:50;;;;;;;;;;;;;;;21.56;29.04;97254.38;5071940;28;970;-74
2023/04/11 00:21:15;;;;;;;;;;;;;;;21.67;29.04;97260.41;5056583;28;1130;-74
2023/04/11 00:23:41;;;;;;;;;;;;;;;21.66;28.91;97258.03;5071799;28;917;-74
2023/04/11 00:26:07;;;;;;;;;;;;;;;21.36;29.59;97251.09;5071648;28;1157;-74
2023/04/11 00:28:32;;;;;;;;;;;;;;;21.78;29.38;97245.84;5071871;28;1378;-74
2023/04/11 00:30:58;;;;;;;;;;;;;;;22.26;28.35;97238.66;5038353;28;1122;-74
2023/04/11 00:33:24;;;;;;;;;;;;;;;22.21;28.72;97236.44;5076951;28;1170;-73
2023/04/11 00:35:49;;;;;;;;;;;;;;;21.79;29.19;97234.03;5060268;28;1975;-74
2023/04/11 00:38:15;;;;;;;;;;;;;;;21.69;29.16;97231.63;5077086;28;1110;-74
2023/04/11 00:40:41;;;;;;;;;;;;;;;21.57;29.43;97228.44;5060495;28;1149;-74
2023/04/11 00:43:07;;;;;;;;;;;;;;;21.68;29.22;97233.69;5076961;28;963;-74
2023/04/11 00:45:33;;;;;;;;;;;;;;;21.79;29.05;97222.72;5036805;28;1329;-74
2023/04/11 00:47:58;;;;;;;;;;;;;;;21.78;29.34;97215.47;5036596;28;978;-74
2023/04/11 00:50:24;;;;;;;;;;;;;;;22.16;28.81;97211.53;5020209;28;956;-74
2023/04/11 00:52:49;;;;;;;;;;;;;;;22.72;27.98;97206.75;5036648;28;1217;-74
2023/04/11 00:55:15;;;;;;;;;;;;;;;22.54;28.38;97194.16;5020423;28;1969;-74
2023/04/11 00:57:41;;;;;;;;;;;;;;;22.11;28.46;97192.31;5036741;28;988;-74
2023/04/11 01:00:09;;;;;;;;;;;;;;;21.83;29.31;97189.38;5013563;28;947;-74
2023/04/11 01:02:36;;;;;;;;;;;;;;;21.70;29.11;97185.84;4978137;28;933;-74
2023/04/11 01:05:02;;;;;;;;;;;;;;;21.75;29.41;97182.41;4948246;28;993;-75
2023/04/11 01:07:28;;;;;;;;;;;;;;;21.65;29.33;97177.97;4955189;29;1081;-74
2023/04/11 01:09:54;;;;;;;;;;;;;;;21.59;29.51;97180.63;4955432;29;1071;-74
2023/04/11 01:12:20;;;;;;;;;;;;;;;21.83;29.64;97166.72;4974537;28;1019;-74
2023/04/11 01:14:46;;;;;;;;;;;;;;;22.18;28.80;97160.88;4973919;28;967;-74
2023/04/11 01:17:13;;;;;;;;;;;;;;;21.93;29.22;97144.09;4974392;28;1918;-74
2023/04/11 01:19:38;;;;;;;;;;;;;;;21.96;29.14;97151.66;4974704;28;1017;-75
2023/04/11 01:22:04;;;;;;;;;;;;;;;22.14;28.87;97145.28;4979539;28;1136;-75
2023/04/11 01:24:30;;;;;;;;;;;;;;;21.59;29.22;97143.03;5013638;28;1205;-74
2023/04/11 01:26:56;;;;;;;;;;;;;;;21.54;29.44;97143.63;5013210;28;1015;-74
2023/04/11 01:29:22;;;;;;;;;;;;;;;21.77;28.98;97134.63;5013394;28;1051;-74
2023/04/11 01:31:48;;;;;;;;;;;;;;;21.87;29.01;97137.47;5061196;28;1015;-74
2023/04/11 01:34:14;;;;;;;;;;;;;;;21.99;28.85;97116.72;5036599;28;938;-74
2023/04/11 01:36:40;;;;;;;;;;;;;;;22.10;28.87;97125.56;5052722;28;1964;-74
2023/04/11 01:39:06;;;;;;;;;;;;;;;22.21;28.75;97103.25;5015484;28;1167;-75
2023/04/11 01:41:31;;;;;;;;;;;;;;;21.86;29.19;97114.00;5016566;28;1071;-74
2023/04/11 01:43:57;;;;;;;;;;;;;;;21.59;29.82;97100.56;5032783;28;1083;-74
2023/04/11 01:46:23;;;;;;;;;;;;;;;21.58;29.84;97093.34;5049319;28;953;-74
2023/04/11 01:48:49;;;;;;;;;;;;;;;21.68;29.78;97086.44;5032742;28;1182;-74
2023/04/11 01:51:14;;;;;;;;;;;;;;;21.47;29.98;97090.16;5016547;28;1170;-75
2023/04/11 01:53:44;;;;;;;;;;;;;;;22.28;29.12;97088.78;5032719;28;1149;-74
2023/04/11 01:56:11;;;;;;;;;;;;;;;22.06;29.52;97079.59;5032676;28;1985;-73
2023/04/11 01:58:36;;;;;;;;;;;;;;;22.02;29.90;97071.28;4996296;28;1170;-74
2023/04/11 02:01:02;;;;;;;;;;;;;;;21.67;30.01;97059.41;4980677;28;1237;-74
2023/04/11 02:03:28;;;;;;;;;;;;;;;21.76;29.78;97053.75;4996576;28;1244;-74
2023/04/11 02:05:54;;;;;;;;;;;;;;;21.88;29.65;97062.59;5013089;28;964;-73
2023/04/11 02:08:20;;;;;;;;;;;;;;;21.76;30.15;97053.75;4980562;28;998;-74
2023/04/11 02:10:46;;;;;;;;;;;;;;;21.75;29.87;97057.84;5027221;28;1167;-74
2023/04/11 02:13:12;;;;;;;;;;;;;;;21.72;30.01;97055.16;5035975;28;1129;-74
2023/04/11 02:15:37;;;;;;;;;;;;;;;22.25;29.36;97050.06;5035992;28;1977;-74
2023/04/11 02:18:03;;;;;;;;;;;;;;;22.31;29.25;97053.81;5052530;28;1003;-73
2023/04/11 02:20:28;;;;;;;;;;;;;;;22.43;29.27;97043.56;5015828;28;1483;-74
2023/04/11 02:22:57;;;;;;;;;;;;;;;21.91;29.71;97053.13;4999857;28;1217;-74
2023/04/11 02:25:23;;;;;;;;;;;;;;;21.85;29.57;97045.25;5001859;28;983;-74
2023/04/11 02:27:48;;;;;;;;;;;;;;;21.62;30.11;97037.38;5016040;28;951;-75
2023/04/11 02:30:14;;;;;;;;;;;;;;;22.31;29.40;97019.81;4983978;28;1123;-74
2023/04/11 02:32:42;;;;;;;;;;;;;;;22.23;29.50;97029.91;5016313;28;1037;-74
2023/04/11 02:35:08;;;;;;;;;;;;;;;22.04;29.78;97005.63;5001082;28;1261;-74
2023/04/11 02:37:33;;;;;;;;;;;;;;;21.82;29.91;96983.13;4996653;28;1914;-74
2023/04/11 02:40:00;;;;;;;;;;;;;;;21.87;29.61;96987.38;4980643;28;1378;-74
2023/04/11 02:42:26;;;;;;;;;;;;;;;21.88;29.67;96978.41;4980264;28;1481;-74
2023/04/11 02:44:55;;;;;;;;;;;;;;;22.35;29.17;96969.44;4996435;28;1036;-73
2023/04/11 02:47:24;;;;;;;;;;;;;;;22.49;29.12;96959.50;4979987;28;1217;-74
2023/04/11 02:49:50;;;;;;;;;;;;;;;22.61;28.85;96963.38;4980548;28;1356;-73
2023/04/11 02:52:21;;;;;;;;;;;;;;;22.38;29.15;96950.69;5001312;28;1363;-74
2023/04/11 02:54:46;;;;;;;;;;;;;;;21.98;29.78;96945.22;5003012;28;1103;-74
2023/04/11 02:57:12;;;;;;;;;;;;;;;21.94;29.69;96950.25;5019177;28;1961;-74
2023/04/11 02:59:39;;;;;;;;;;;;;;;21.91;29.58;96951.19;5034435;28;1366;-74
2023/04/11 03:02:05;;;;;;;;;;;;;;;21.59;30.60;96947.72;5056730;28;1090;-74
2023/04/11 03:04:30;;;;;;;;;;;;;;;21.66;30.28;96944.59;5073075;28;926;-73
2023/04/11 03:07:08;;;;;;;;;;;;;;;22.18;29.86;96948.38;5041668;28;1107;-75
2023/04/11 03:09:34;;;;;;;;;;;;;;;22.22;29.77;96957.47;5057432;28;1151;-74
2023/04/11 03:12:00;;;;;;;;;;;;;;;22.23;30.09;96956.25;5072968;28;1152;-74
2023/04/11 03:14:25;;;;;;;;;;;;;;;21.96;29.98;96947.72;5072842;28;1368;-74
2023/04/11 03:16:51;;;;;;;;;;;;;;;21.74;30.29;96954.34;5073076;28;1905;-73
2023/04/11 03:19:17;;;;;;;;;;;;;;;21.69;30.19;96952.13;5092743;28;1109;-75
2023/04/11 03:21:42;;;;;;;;;;;;;;;21.89;30.16;96940.34;5059802;28;1577;-74
2023/04/11 03:24:08;;;;;;;;;;;;;;;21.66;30.38;96940.94;5059705;28;1153;-74
2023/04/11 03:26:34;;;;;;;;;;;;;;;21.83;30.11;96934.53;5076262;28;996;-75
2023/04/11 03:29:07;;;;;;;;;;;;;;;22.26;29.95;96921.25;5077633;28;923;-74
2023/04/11 03:31:42;;;;;;;;;;;;;;;22.30;30.07;96927.56;5060626;28;1128;-74
2023/04/11 03:34:07;;;;;;;;;;;;;;;22.40;29.63;96928.31;5059823;28;898;-74
2023/04/11 03:36:33;;;;;;;;;;;;;;;22.02;29.91;96928.81;5059356;28;1930;-74
2023/04/11 03:39:03;;;;;;;;;;;;;;;21.85;30.29;96932.00;5075630;28;1545;-74
2023/04/11 03:41:28;;;;;;;;;;;;;;;21.49;30.44;96935.59;5059297;28;1062;-75
2023/04/11 03:43:55;;;;;;;;;;;;;;;21.85;29.90;96934.81;5071137;28;2421;-74
2023/04/11 03:46:21;;;;;;;;;;;;;;;22.38;29.70;96924.38;5091346;28;1580;-75
2023/04/11 03:48:46;;;;;;;;;;;;;;;22.61;29.51;96924.47;5094810;28;1351;-74
2023/04/11 03:51:13;;;;;;;;;;;;;;;22.66;29.21;96930.78;5094816;28;1224;-74
2023/04/11 03:53:51;;;;;;;;;;;;;;;22.04;29.92;96909.31;5076595;28;1654;-75
2023/04/11 03:56:24;;;;;;;;;;;;;;;21.86;30.12;96921.44;5094623;28;1913;-74
2023/04/11 03:58:50;;;;;;;;;;;;;;;21.75;30.16;96924.75;5094469;28;1131;-75
2023/04/11 04:01:18;;;;;;;;;;;;;;;21.74;30.51;96937.34;5094183;28;1354;-74
2023/04/11 04:03:46;;;;;;;;;;;;;;;21.72;30.43;96927.75;5063036;28;1375;-74
2023/04/11 04:06:13;;;;;;;;;;;;;;;21.70;30.31;96931.03;5087655;28;1371;-75
2023/04/11 04:08:39;;;;;;;;;;;;;;;21.84;30.18;96924.75;5074766;28;1436;-74
2023/04/11 04:11:05;;;;;;;;;;;;;;;21.69;30.38;96929.47;5094101;28;1301;-74
2023/04/11 04:13:32;;;;;;;;;;;;;;;21.70;30.25;96933.09;5076336;28;1354;-75
2023/04/11 04:16:08;;;;;;;;;;;;;;;21.94;30.12;96921.94;5061982;28;1987;-74
2023/04/11 04:18:34;;;;;;;;;;;;;;;21.98;30.69;96922.56;5060680;28;1111;-74
2023/04/11 04:21:00;;;;;;;;;;;;;;;22.10;30.23;96918.75;5060439;28;1126;-75
2023/04/11 04:23:26;;;;;;;;;;;;;;;22.20;30.18;96911.84;5052551;28;1487;-75
2023/04/11 04:26:16;;;;;;;;;;;;;;;21.95;30.34;96903.66;4996965;28;994;-75
2023/04/11 04:28:52;;;;;;;;;;;;;;;21.71;30.33;96910.00;5013702;28;1464;-74
2023/04/11 04:31:28;;;;;;;;;;;;;;;21.64;30.53;96893.31;4999006;28;1306;-74
2023/04/11 04:34:07;;;;;;;;;;;;;;;21.59;30.63;96896.75;4967338;28;1453;-75
2023/04/11 04:36:45;;;;;;;;;;;;;;;22.30;29.73;96893.56;4978671;28;1947;-75
2023/04/11 04:39:16;;;;;;;;;;;;;;;22.18;30.06;96890.94;4978245;28;1126;-74
2023/04/11 04:41:56;;;;;;;;;;;;;;;22.15;30.06;96891.88;4978075;28;1236;-75
2023/04/11 04:44:25;;;;;;;;;;;;;;;22.14;29.81;96885.41;4978291;28;1365;-74
2023/04/11 04:46:54;;;;;;;;;;;;;;;21.96;30.06;96874.06;4978283;28;1371;-75
2023/04/11 04:49:23;;;;;;;;;;;;;;;21.78;29.93;96864.34;4977462;28;1280;-74
2023/04/11 04:51:48;;;;;;;;;;;;;;;21.73;30.46;96855.72;5033479;28;1066;-74
2023/04/11 04:54:18;;;;;;;;;;;;;;;22.07;30.09;96858.19;5016252;28;1456;-75
2023/04/11 04:56:47;;;;;;;;;;;;;;;22.24;29.79;96850.13;5017395;28;1914;-74
2023/04/11 04:59:15;;;;;;;;;;;;;;;22.22;29.79;96846.97;5017506;28;1253;-74
2023/04/11 05:01:43;;;;;;;;;;;;;;;21.89;29.99;96846.09;5017111;28;1151;-74
2023/04/11 05:04:09;;;;;;;;;;;;;;;21.91;29.91;96837.91;5021880;28;1408;-74
2023/04/11 05:06:48;;;;;;;;;;;;;;;21.72;30.10;96840.78;5048173;28;1286;-75
2023/04/11 05:09:15;;;;;;;;;;;;;;;21.57;30.50;96842.69;5033238;28;1246;-74
2023/04/11 05:11:41;;;;;;;;;;;;;;;21.72;30.38;96828.66;5049798;28;1525;-74
2023/04/11 05:14:07;;;;;;;;;;;;;;;22.46;29.34;96820.75;5046240;28;1425;-75
2023/04/11 05:16:33;;;;;;;;;;;;;;;22.30;30.01;96819.09;5020196;28;1902;-75
2023/04/11 05:18:59;;;;;;;;;;;;;;;22.46;29.37;96820.75;5089808;28;1015;-75
2023/04/11 05:21:25;;;;;;;;;;;;;;;22.27;29.76;96812.31;5072822;28;1256;-75
2023/04/11 05:23:51;;;;;;;;;;;;;;;22.12;29.58;96814.25;5071574;28;1418;-75
2023/04/11 05:26:17;;;;;;;;;;;;;;;21.85;29.73;96801.72;5056753;28;1308;-74
2023/04/11 05:28:43;;;;;;;;;;;;;;;21.92;29.64;96799.84;5050961;28;1112;-75
2023/04/11 05:31:13;;;;;;;;;;;;;;;21.77;30.10;96794.06;5070244;28;1193;-75
2023/04/11 05:33:39;;;;;;;;;;;;;;;21.88;29.96;96787.91;5070506;28;1440;-74
2023/04/11 05:36:05;;;;;;;;;;;;;;;21.68;30.17;96780.69;5070924;28;1902;-74
2023/04/11 05:38:34;;;;;;;;;;;;;;;21.88;29.95;96787.91;5070096;28;1086;-75
2023/04/11 05:40:59;;;;;;;;;;;;;;;22.56;29.36;96782.59;5086653;28;990;-75
2023/04/11 05:43:26;;;;;;;;;;;;;;;22.43;29.63;96787.69;5094954;28;1355;-75
2023/04/11 05:45:51;;;;;;;;;;;;;;;22.19;30.00;96791.28;5074196;28;1150;-74
2023/04/11 05:48:20;;;;;;;;;;;;;;;22.30;29.65;96785.88;5096352;28;1370;-75
2023/04/11 05:50:46;;;;;;;;;;;;;;;21.91;30.14;96775.59;5063588;28;1345;-76
2023/04/11 05:53:12;;;;;;;;;;;;;;;21.51;30.57;96771.00;5065390;28;1434;-74
2023/04/11 05:55:37;;;;;;;;;;;;;;;21.76;30.08;96764.97;5072724;28;1906;-74
2023/04/11 05:58:03;;;;;;;;;;;;;;;22.24;30.10;96770.78;5056065;28;1087;-75
2023/04/11 06:00:30;;;;;;;;;;;;;;;23.04;29.18;96768.44;5057426;28;971;-74
2023/04/11 06:02:56;;;;;;;;;;;;;;;22.30;30.02;96762.41;5076553;28;1278;-75
2023/04/11 06:05:21;;;;;;;;;;;;;;;20.62;29.89;96532.59;5059572;28;1134;-75
2023/04/11 06:07:47;;;;;;;;;;;;;;;22.28;29.34;96765.75;5043128;28;1014;-75
2023/04/11 06:10:13;;;;;;;;;;;;;;;21.89;30.03;96756.25;5056389;28;1052;-74
2023/04/11 06:12:38;;;;;;;;;;;;;;;22.19;29.49;96751.63;5057395;28;1543;-75
2023/04/11 06:15:04;;;;;;;;;;;;;;;22.74;29.45;96756.97;5039613;28;1199;-74
2023/04/11 06:17:30;;;;;;;;;;;;;;;22.60;29.74;96752.03;5041406;28;1902;-74
2023/04/11 06:19:55;;;;;;;;;;;;;;;22.36;30.08;96752.78;4973685;28;945;-75
2023/04/11 06:22:21;;;;;;;;;;;;;;;22.20;30.07;96753.19;4993761;28;1089;-74
2023/04/11 06:24:47;;;;;;;;;;;;;;;22.22;29.75;96756.31;4977320;28;972;-74
2023/04/11 06:27:13;;;;;;;;;;;;;;;22.32;29.22;96748.53;4991996;28;1503;-74
2023/04/11 06:29:40;;;;;;;;;;;;;;;22.24;29.52;96753.00;4977127;28;1696;-74
2023/04/11 06:32:05;;;;;;;;;;;;;;;22.11;29.99;96756.03;4963208;28;1392;-74
2023/04/11 06:34:31;;;;;;;;;;;;;;;22.20;29.65;96741.84;4996963;28;1754;-74
2023/04/11 06:36:57;;;;;;;;;;;;;;;22.06;29.85;96737.63;4996695;28;1981;-75
2023/04/11 06:39:22;;;;;;;;;;;;;;;21.96;30.10;96738.13;5013116;28;1619;-75
2023/04/11 06:41:48;;;;;;;;;;;;;;;21.82;30.33;96746.06;5040584;28;973;-74
2023/04/11 06:44:22;;;;;;;;;;;;;;;22.27;30.00;96746.38;5054479;28;1300;-74
2023/04/11 06:46:48;;;;;;;;;;;;;;;22.14;30.56;96740.94;5054863;28;1683;-75
2023/04/11 06:49:13;;;;;;;;;;;;;;;21.57;30.23;96627.56;5035729;28;877;-74
2023/04/11 06:51:39;;;;;;;;;;;;;;;22.35;30.31;96737.03;5052086;28;986;-74
2023/04/11 06:54:05;;;;;;;;;;;;;;;22.01;30.51;96734.66;5035664;28;1030;-75
2023/04/11 06:56:30;;;;;;;;;;;;;;;22.19;29.81;96737.44;5059132;28;1944;-74
2023/04/11 06:58:56;;;;;;;;;;;;;;;22.10;29.69;96726.13;5077297;28;1070;-77
2023/04/11 07:01:24;;;;;;;;;;;;;;;21.98;30.43;96724.28;5060137;28;1259;-75
2023/04/11 07:03:51;;;;;;;;;;;;;;;22.35;30.11;96711.53;5076447;28;930;-75
2023/04/11 07:06:17;;;;;;;;;;;;;;;22.35;30.31;96714.38;5076303;28;1482;-74
2023/04/11 07:08:43;;;;;;;;;;;;;;;22.35;30.53;96708.72;5110498;28;1017;-75
2023/04/11 07:11:08;;;;;;;;;;;;;;;22.11;30.62;96705.06;5092656;28;1480;-75
2023/04/11 07:13:34;;;;;;;;;;;;;;;22.59;29.98;96694.53;5337043;22;3654;-78
2023/04/11 07:15:59;;;;;;;;;;;;;;;23.08;29.19;96678.25;5072189;28;1893;-79
2023/04/11 07:18:26;;;;;;;;;;;;;;;22.87;29.08;96697.94;5040362;28;1543;-79
2023/04/11 07:20:51;;;;;;;;;;;;;;;22.41;29.64;96702.38;5058684;28;810;-79
2023/04/11 07:23:17;;;;;;;;;;;;;;;22.47;29.60;96691.94;5054716;28;1541;-78
2023/04/11 07:25:43;;;;;;;;;;;;;;;22.12;29.93;96689.63;5040486;28;1174;-80
2023/04/11 07:28:10;;;;;;;;;;;;;;;22.58;29.43;96683.66;5038084;28;2175;-79
2023/04/11 07:30:35;;;;;;;;;;;;;;;22.72;29.25;96685.78;5081674;28;2051;-80
2023/04/11 07:33:02;;;;;;;;;;;;;;;22.49;29.48;96678.09;5082480;28;1035;-79
2023/04/11 07:38:30;;;;;;;;;;;;;;;22.76;29.32;96691.28;5033985;28;1467;-79
2023/04/11 07:40:56;;;;;;;;;;;;;;;22.68;29.58;96685.16;5038755;28;1012;-79
2023/04/11 07:43:23;;;;;;;;;;;;;;;21.87;30.78;96684.38;4986443;28;2015;-80
2023/04/11 07:45:48;;;;;;;;;;;;;;;21.81;30.71;96681.41;4985226;28;1655;-79
2023/04/11 07:48:14;;;;;;;;;;;;;;;22.09;30.13;96679.22;5001055;28;950;-79
2023/04/11 07:50:40;;;;;;;;;;;;;;;22.36;30.07;96676.25;4984738;28;1092;-71
2023/04/11 07:53:06;;;;;;;;;;;;;;;22.63;29.69;96660.31;4999645;28;987;-68
2023/04/11 07:55:32;;;;;;;;;;;;;;;22.62;29.70;96670.09;5023937;28;1971;-80
2023/04/11 07:57:58;;;;;;;;;;;;;;;22.50;29.67;96652.09;5001442;28;1508;-80
2023/04/11 08:00:23;;;;;;;;;;;;;;;21.91;30.48;96656.66;5014435;28;1902;-78
2023/04/11 08:02:50;;;;;;;;;;;;;;;21.79;30.74;96656.41;5017176;28;1703;-80
2023/04/11 08:05:16;;;;;;;;;;;;;;;21.86;30.66;96643.94;5021111;28;1818;-80
2023/04/11 08:07:41;;;;;;;;;;;;;;;21.98;30.22;96637.28;5020442;28;933;-80
2023/04/11 08:10:07;;;;;;;;;;;;;;;22.16;29.99;96639.25;5038619;28;1655;-80
2023/04/11 08:12:33;;;;;;;;;;;;;;;22.38;29.80;96638.16;5004975;28;1116;-80
2023/04/11 08:14:59;;;;;;;;;;;;;;;22.27;29.54;96622.47;5021148;28;966;-80
2023/04/11 08:17:27;;;;;;;;;;;;;;;21.88;30.17;96609.50;4980803;28;1977;-80
2023/04/11 08:19:54;;;;;;;;;;;;;;;22.00;30.06;96626.25;4964268;28;1275;-80
2023/04/11 08:22:20;;;;;;;;;;;;;;;21.92;30.41;96619.38;4975786;28;1801;-79
2023/04/11 08:24:45;;;;;;;;;;;;;;;22.47;29.47;96629.59;4969335;28;960;-80
2023/04/11 08:27:11;;;;;;;;;;;;;;;22.11;29.79;96608.75;4961397;28;1086;-80
2023/04/11 08:29:36;;;;;;;;;;;;;;;22.01;30.11;96621.34;4961026;28;945;-80
2023/04/11 08:32:03;;;;;;;;;;;;;;;21.91;30.01;96625.50;4938801;29;1124;-80
2023/04/11 08:34:30;;;;;;;;;;;;;;;22.06;29.91;96618.66;4907044;29;982;-80
2023/04/11 08:36:56;;;;;;;;;;;;;;;22.67;29.56;96609.88;4919667;29;1883;-80
2023/04/11 08:39:21;;;;;;;;;;;;;;;22.65;30.03;96623.78;4909947;29;1106;-80
2023/04/11 08:41:47;;;;;;;;;;;;;;;22.43;30.70;96618.41;4941748;29;931;-80
2023/04/11 08:44:13;;;;;;;;;;;;;;;22.50;30.45;96605.94;4925550;29;1124;-80
2023/04/11 08:46:40;;;;;;;;;;;;;;;22.32;30.58;96613.31;4909043;29;1946;-80
2023/04/11 08:49:05;;;;;;;;;;;;;;;22.21;30.45;96607.41;4972739;28;1765;-80
2023/04/11 08:51:31;;;;;;;;;;;;;;;21.95;30.94;96592.13;4960836;28;1541;-80
2023/04/11 08:53:58;;;;;;;;;;;;;;;22.19;30.33;96592.97;4979102;28;1642;-80
2023/04/11 08:56:24;;;;;;;;;;;;;;;21.94;30.80;96590.56;4980518;28;1975;-80
2023/04/11 08:58:49;;;;;;;;;;;;;;;22.06;30.66;96586.72;4979865;28;982;-81
2023/04/11 09:01:30;;;;;;;;;;;;;;;21.77;31.22;96584.53;4964580;28;1068;-80
2023/04/11 09:04:00;;;;;;;;;;;;;;;21.85;30.78;96574.41;5010794;28;1858;-80
2023/04/11 09:06:26;;;;;;;;;;;;;;;22.00;30.67;96574.47;5000544;28;1136;-80
2023/04/11 09:08:51;;;;;;;;;;;;;;;22.24;30.79;96558.28;4999449;28;1381;-80
2023/04/11 09:11:17;;;;;;;;;;;;;;;22.81;30.20;96560.94;5018136;28;1004;-79
2023/04/11 09:13:43;;;;;;;;;;;;;;;22.76;29.95;96567.28;5017047;28;1651;-80
2023/04/11 09:16:10;;;;;;;;;;;;;;;22.18;30.55;96565.91;5017282;28;1969;-80
2023/04/11 09:18:37;;;;;;;;;;;;;;;22.16;30.35;96559.91;5000385;28;937;-80
2023/04/11 09:21:03;;;;;;;;;;;;;;;21.78;30.94;96558.56;4960768;28;989;-81
2023/04/11 09:23:29;;;;;;;;;;;;;;;22.05;30.05;96554.00;4974001;28;2000;-80
2023/04/11 09:25:54;;;;;;;;;;;;;;;22.21;30.18;96547.91;4977053;28;965;-80
2023/04/11 09:28:20;;;;;;;;;;;;;;;22.53;30.57;96542.59;4959632;28;1058;-80
2023/04/11 09:30:53;;;;;;;;;;;;;;;22.61;30.43;96544.59;4960310;28;955;-80
2023/04/11 09:33:22;;;;;;;;;;;;;;;22.69;30.14;96539.31;4973206;28;1960;-80
2023/04/11 09:35:52;;;;;;;;;;;;;;;22.24;30.52;96538.47;4979836;28;1910;-80
2023/04/11 09:38:31;;;;;;;;;;;;;;;22.29;29.92;96534.94;4980000;28;1122;-80
2023/04/11 09:40:56;;;;;;;;;;;;;;;22.26;29.87;96535.91;4964640;28;1173;-80
2023/04/11 09:43:22;;;;;;;;;;;;;;;21.92;30.63;96517.44;4959274;29;2027;-80
2023/04/11 09:45:47;;;;;;;;;;;;;;;22.22;30.37;96518.31;4945083;29;1003;-80
2023/04/11 09:48:13;;;;;;;;;;;;;;;22.16;30.33;96517.41;4960591;29;975;-80
2023/04/11 09:50:39;;;;;;;;;;;;;;;21.95;30.66;96512.84;4944044;29;1384;-80
2023/04/11 09:53:07;;;;;;;;;;;;;;;21.79;30.96;96509.16;4996956;28;1021;-80
2023/04/11 09:55:32;;;;;;;;;;;;;;;22.06;30.63;96521.56;4951116;28;1906;-80
2023/04/11 09:57:58;;;;;;;;;;;;;;;22.29;30.68;96523.63;4983172;28;966;-80
2023/04/11 10:00:28;;;;;;;;;;;;;;;22.08;31.29;96508.50;4983171;28;1032;-79
2023/04/11 10:02:54;;;;;;;;;;;;;;;22.23;31.12;96502.13;4982128;28;1915;-80
2023/04/11 10:05:20;;;;;;;;;;;;;;;22.18;30.99;96486.56;4983585;28;899;-80
2023/04/11 10:07:45;;;;;;;;;;;;;;;22.28;30.55;96487.28;4957963;29;1690;-80
2023/04/11 10:10:14;;;;;;;;;;;;;;;22.08;30.78;96485.84;4960248;28;1255;-80
2023/04/11 10:12:40;;;;;;;;;;;;;;;21.77;31.03;96477.75;4960168;29;987;-80
2023/04/11 10:15:07;;;;;;;;;;;;;;;21.88;30.76;96473.56;4987033;28;2375;-80
2023/04/11 10:17:32;;;;;;;;;;;;;;;21.70;31.12;96472.44;4995134;28;1981;-80
2023/04/11 10:19:58;;;;;;;;;;;;;;;21.90;31.03;96479.53;4962876;28;1006;-79
2023/04/11 10:22:42;;;;;;;;;;;;;;;22.21;31.03;96477.09;4963501;28;985;-80
2023/04/11 10:25:14;;;;;;;;;;;;;;;22.16;31.20;96462.81;4979078;28;1101;-80
2023/04/11 10:27:47;;;;;;;;;;;;;;;22.00;31.62;96452.69;4939920;29;1997;-79
2023/04/11 10:30:12;;;;;;;;;;;;;;;22.04;31.00;96456.13;4940325;29;1112;-80
2023/04/11 10:32:38;;;;;;;;;;;;;;;21.96;31.17;96446.44;4940627;29;916;-80
2023/04/11 10:35:13;;;;;;;;;;;;;;;21.98;31.00;96441.09;4924756;29;1187;-80
2023/04/11 10:37:38;;;;;;;;;;;;;;;21.92;30.82;96445.88;4939191;29;1935;-80
2023/04/11 10:40:11;;;;;;;;;;;;;;;21.93;30.75;96439.69;4921062;29;960;-80
2023/04/11 10:42:42;;;;;;;;;;;;;;;22.27;30.71;96441.13;4883802;29;1080;-80
2023/04/11 10:45:22;;;;;;;;;;;;;;;22.67;30.66;96427.66;4852798;29;1112;-80
2023/04/11 10:47:50;;;;;;;;;;;;;;;22.40;30.90;96425.91;4866607;29;1737;-79
2023/04/11 10:50:38;;;;;;;;;;;;;;;22.67;30.63;96414.25;4857407;29;913;-80
2023/04/11 10:53:05;;;;;;;;;;;;;;;22.44;30.36;96432.19;4856879;29;1315;-80
2023/04/11 10:55:51;;;;;;;;;;;;;;;21.92;31.08;96426.03;4886893;29;1982;-80
2023/04/11 10:58:20;;;;;;;;;;;;;;;22.28;30.21;96417.22;4925077;28;1761;-80
2023/04/11 11:00:47;;;;;;;;;;;;;;;22.36;30.25;96414.78;4963640;28;918;-80
2023/04/11 11:03:23;;;;;;;;;;;;;;;22.21;31.00;96414.75;4977862;28;966;-80
2023/04/11 11:06:01;;;;;;;;;;;;;;;22.67;30.01;96413.47;4945903;28;1884;-80
2023/04/11 11:08:36;;;;;;;;;;;;;;;22.28;30.17;96403.06;4943830;28;1784;-80
2023/04/11 11:11:03;;;;;;;;;;;;;;;21.81;31.33;96418.88;4979065;28;1000;-80
2023/04/11 11:13:37;;;;;;;;;;;;;;;21.91;31.37;96413.91;4980964;28;968;-80
2023/04/11 11:16:03;;;;;;;;;;;;;;;22.29;30.35;96398.94;5000675;28;1883;-80
2023/04/11 11:18:29;;;;;;;;;;;;;;;22.07;30.75;96404.16;4983906;28;1273;-80
2023/04/11 11:20:55;;;;;;;;;;;;;;;22.02;30.95;96399.16;4999121;28;881;-80
2023/04/11 11:23:21;;;;;;;;;;;;;;;21.65;31.37;96395.88;4997959;28;956;-80
2023/04/11 11:25:55;;;;;;;;;;;;;;;22.17;31.47;96385.84;4961740;28;1904;-79
2023/04/11 11:28:21;;;;;;;;;;;;;;;22.56;31.07;96385.75;4997321;28;936;-80
2023/04/11 11:30:50;;;;;;;;;;;;;;;22.51;31.31;96380.75;4997837;28;969;-79
2023/04/11 11:33:17;;;;;;;;;;;;;;;22.40;31.81;96380.56;4996935;28;1051;-79
2023/04/11 11:35:48;;;;;;;;;;;;;;;22.32;31.47;96386.63;4997797;28;1906;-80
2023/04/11 11:38:14;;;;;;;;;;;;;;;22.25;31.42;96374.91;4996673;28;1144;-80
2023/04/11 11:40:39;;;;;;;;;;;;;;;22.29;30.95;96375.50;4996900;28;936;-79
2023/04/11 11:43:06;;;;;;;;;;;;;;;22.12;30.96;96363.84;4981024;28;995;-80
2023/04/11 11:45:32;;;;;;;;;;;;;;;21.72;31.60;96372.88;4980859;28;1059;-80
2023/04/11 11:47:57;;;;;;;;;;;;;;;21.75;31.72;96375.50;4976774;28;1733;-80
2023/04/11 11:50:25;;;;;;;;;;;;;;;22.20;31.80;96367.09;4994714;28;1898;-80
2023/04/11 11:52:51;;;;;;;;;;;;;;;22.49;31.54;96366.31;4996806;28;997;-79
2023/04/11 11:55:17;;;;;;;;;;;;;;;22.65;31.17;96351.63;4996660;28;977;-79
2023/04/11 11:57:43;;;;;;;;;;;;;;;22.67;31.13;96353.94;5010124;28;1997;-80
2023/04/11 12:00:09;;;;;;;;;;;;;;;22.30;31.20;96355.16;5018621;28;956;-80
2023/04/11 12:02:35;;;;;;;;;;;;;;;21.92;31.65;96352.41;5018717;28;883;-80
2023/04/11 12:05:04;;;;;;;;;;;;;;;21.95;31.23;96351.41;5016996;28;1004;-80
2023/04/11 12:07:32;;;;;;;;;;;;;;;22.26;30.65;96346.09;5015936;28;1876;-80
2023/04/11 12:10:02;;;;;;;;;;;;;;;22.42;31.78;96344.00;5001357;28;985;-80
2023/04/11 12:12:32;;;;;;;;;;;;;;;23.00;30.80;96343.13;4977611;28;928;-79
2023/04/11 12:14:57;;;;;;;;;;;;;;;22.83;31.17;96342.06;4977460;28;997;-80
2023/04/11 12:17:23;;;;;;;;;;;;;;;22.39;31.40;96330.84;4976359;28;2018;-80
2023/04/11 12:19:49;;;;;;;;;;;;;;;22.04;31.95;96335.13;4977336;28;897;-80
2023/04/11 12:22:14;;;;;;;;;;;;;;;22.01;31.45;96326.81;4960953;28;1139;-80
2023/04/11 12:24:40;;;;;;;;;;;;;;;22.10;31.57;96318.22;4976748;28;1088;-80
2023/04/11 12:27:05;;;;;;;;;;;;;;;22.29;31.23;96319.63;4957392;29;1875;-80
2023/04/11 12:29:31;;;;;;;;;;;;;;;21.87;31.91;96322.72;4938147;29;1166;-80
2023/04/11 12:31:56;;;;;;;;;;;;;;;21.95;31.85;96321.06;4938723;29;1296;-79
2023/04/11 12:34:22;;;;;;;;;;;;;;;22.02;31.37;96315.00;4938268;29;983;-80
2023/04/11 12:36:47;;;;;;;;;;;;;;;21.92;31.75;96295.78;4944747;29;1980;-80
2023/04/11 12:39:13;;;;;;;;;;;;;;;22.47;31.50;96312.16;4941435;29;1049;-80
2023/04/11 12:41:39;;;;;;;;;;;;;;;23.06;30.67;96295.00;4957766;29;1156;-80
2023/04/11 12:44:04;;;;;;;;;;;;;;;22.63;31.30;96305.94;4939938;28;1300;-80
2023/04/11 12:46:32;;;;;;;;;;;;;;;22.41;31.64;96297.13;4960544;28;1850;-80
2023/04/11 12:48:57;;;;;;;;;;;;;;;22.26;31.48;96306.41;4943883;28;1700;-80
2023/04/11 12:51:23;;;;;;;;;;;;;;;21.93;32.00;96303.00;4944709;28;1226;-80
2023/04/11 12:53:51;;;;;;;;;;;;;;;21.98;31.48;96297.44;4944260;28;999;-80
2023/04/11 12:56:17;;;;;;;;;;;;;;;21.79;31.89;96307.38;4976310;28;1985;-80
2023/04/11 12:58:43;;;;;;;;;;;;;;;21.63;32.38;96300.16;4956953;29;1075;-79
2023/04/11 13:01:09;;;;;;;;;;;;;;;22.01;31.47;96285.09;4957330;29;1029;-80
2023/04/11 13:03:36;;;;;;;;;;;;;;;22.22;31.56;96294.50;4956686;29;1038;-79